createdAt,value
2022-12-20T00:42:16.689Z,100.00
2022-12-20T00:43:18.953Z,100.00
2022-12-20T00:44:20.983Z,100.00
2022-12-20T00:45:22.852Z,100.00
2022-12-20T00:46:25.892Z,100.00
2022-12-20T00:47:28.079Z,100.00
2022-12-20T00:48:30.832Z,100.00
2022-12-20T00:49:35.180Z,100.00
2022-12-20T00:50:37.749Z,100.00
2022-12-20T00:51:39.776Z,100.00
2022-12-20T00:52:41.780Z,100.00
2022-12-20T00:53:44.879Z,100.00
2022-12-20T00:54:46.798Z,100.00
2022-12-20T00:55:48.689Z,100.00
2022-12-20T00:56:50.667Z,100.00
2022-12-20T00:57:52.713Z,100.00
2022-12-20T00:58:54.738Z,100.00
2022-12-20T00:59:56.938Z,100.00
2022-12-20T01:01:00.979Z,100.00
2022-12-20T01:02:03.315Z,100.00
2022-12-20T01:03:06.642Z,100.00
2022-12-20T01:04:08.692Z,100.00
2022-12-20T01:05:10.566Z,100.00
2022-12-20T01:06:12.852Z,100.00
2022-12-20T01:07:14.961Z,100.00
2022-12-20T01:08:16.909Z,100.00
2022-12-20T01:09:19.100Z,100.00
2022-12-20T01:10:21.982Z,100.00
2022-12-20T01:11:30.056Z,100.00
2022-12-20T01:12:32.085Z,100.00
2022-12-20T01:13:36.742Z,100.00
2022-12-20T01:14:38.792Z,100.00
2022-12-20T01:15:41.553Z,100.00
2022-12-20T01:16:46.297Z,100.00
2022-12-20T01:17:48.511Z,100.00
2022-12-20T01:20:04.120Z,100.00
2022-12-20T01:21:09.771Z,100.00
2022-12-20T01:22:11.808Z,100.00
2022-12-20T01:23:13.839Z,100.00
2022-12-20T01:24:18.865Z,100.00
2022-12-20T01:25:21.017Z,100.00
2022-12-20T01:26:25.626Z,100.00
2022-12-20T01:27:27.647Z,100.00
2022-12-20T01:28:32.188Z,100.00
2022-12-20T01:29:34.783Z,100.00
2022-12-20T01:30:40.978Z,100.00
2022-12-20T01:31:43.771Z,100.00
2022-12-20T01:32:45.746Z,100.00
2022-12-20T01:33:49.387Z,100.00
2022-12-20T01:34:53.503Z,100.00
2022-12-20T01:36:00.729Z,100.00
2022-12-20T01:37:02.743Z,100.00
2022-12-20T01:38:04.721Z,100.00
2022-12-20T01:39:15.237Z,100.00
2022-12-20T01:40:17.867Z,100.00
2022-12-20T01:41:22.760Z,100.00
2022-12-20T01:42:25.153Z,100.00
2022-12-20T01:43:50.788Z,100.00
2022-12-20T01:44:58.669Z,100.00
2022-12-20T01:46:00.899Z,100.00
2022-12-20T01:47:05.425Z,100.00
2022-12-20T01:48:08.537Z,100.00
2022-12-20T01:49:31.857Z,100.00
2022-12-20T01:50:34.481Z,100.00
2022-12-20T01:51:46.171Z,100.00
2022-12-20T01:52:48.913Z,100.00
2022-12-20T01:53:54.671Z,100.00
2022-12-20T01:55:06.751Z,100.00
2022-12-20T01:56:10.426Z,100.00
2022-12-20T01:57:16.106Z,100.00
2022-12-20T01:58:20.323Z,100.00
2022-12-20T01:59:23.122Z,100.00
2022-12-20T02:00:27.382Z,100.00
2022-12-20T02:01:29.899Z,100.00
2022-12-20T02:02:33.500Z,100.00
2022-12-20T02:03:36.541Z,100.00
2022-12-20T02:04:39.558Z,100.00
2022-12-20T02:05:45.439Z,100.00
2022-12-20T02:06:48.325Z,100.00
2022-12-20T02:07:53.686Z,100.00
2022-12-20T02:08:59.478Z,100.00
2022-12-20T02:10:03.372Z,100.00
2022-12-20T02:11:15.146Z,100.00
2022-12-20T02:12:26.332Z,100.00
2022-12-20T02:13:52.868Z,100.00
2022-12-20T02:15:23.331Z,100.00
2022-12-20T02:16:30.322Z,100.00
2022-12-20T02:17:36.128Z,100.00
2022-12-20T02:18:45.382Z,100.00
2022-12-20T02:19:57.095Z,100.00
2022-12-20T02:22:45.375Z,100.00
2022-12-20T02:23:59.633Z,100.00
2022-12-20T02:25:08.117Z,100.00
2022-12-20T02:26:26.046Z,100.00
2022-12-20T02:27:50.198Z,100.00
2022-12-20T02:29:24.913Z,100.00
2022-12-20T02:30:35.010Z,100.00
2022-12-20T02:31:40.788Z,100.00
2022-12-20T02:32:49.623Z,100.00
2022-12-20T02:33:54.204Z,100.00
2022-12-20T02:34:56.642Z,100.00
2022-12-20T02:35:58.734Z,100.00
2022-12-20T02:37:00.818Z,99.76
2022-12-20T02:38:26.192Z,99.38
2022-12-20T02:39:30.635Z,99.15
2022-12-20T02:40:36.502Z,98.94
2022-12-20T02:41:42.190Z,98.71
2022-12-20T02:42:45.630Z,98.58
2022-12-20T02:43:51.107Z,98.47
2022-12-20T02:44:56.797Z,98.50
2022-12-20T02:46:01.477Z,98.67
2022-12-20T02:47:06.802Z,98.41
2022-12-20T02:48:12.099Z,98.41
2022-12-20T02:49:17.930Z,98.54
2022-12-20T02:50:29.407Z,98.42
2022-12-20T02:51:32.711Z,98.54
2022-12-20T02:52:38.103Z,98.59
2022-12-20T02:53:42.692Z,98.50
2022-12-20T02:54:44.570Z,98.53
2022-12-20T02:56:05.594Z,98.41
2022-12-20T02:58:33.333Z,98.49
2022-12-20T03:00:06.345Z,98.61
2022-12-20T03:01:12.186Z,98.48
2022-12-20T03:02:16.117Z,98.59
2022-12-20T03:03:20.304Z,98.37
2022-12-20T03:04:31.967Z,98.04
2022-12-20T03:05:35.617Z,97.78
2022-12-20T03:06:41.138Z,97.20
2022-12-20T03:07:43.086Z,96.84
2022-12-20T03:08:45.072Z,96.50
2022-12-20T03:09:47.631Z,96.16
2022-12-20T03:10:51.482Z,95.93
2022-12-20T03:11:53.626Z,95.74
2022-12-20T03:12:57.776Z,95.54
2022-12-20T03:13:59.845Z,95.40
2022-12-20T03:15:01.755Z,94.91
2022-12-20T03:16:05.519Z,94.42
2022-12-20T03:17:08.331Z,93.79
2022-12-20T03:18:10.605Z,93.43
2022-12-20T03:19:12.655Z,92.85
2022-12-20T03:20:14.975Z,92.04
2022-12-20T03:21:16.867Z,91.52
2022-12-20T03:22:19.497Z,91.43
2022-12-20T03:23:21.622Z,91.44
2022-12-20T03:24:23.956Z,90.94
2022-12-20T03:25:26.379Z,90.87
2022-12-20T03:26:28.504Z,90.87
2022-12-20T03:27:30.383Z,90.83
2022-12-20T03:28:32.285Z,91.16
2022-12-20T03:29:35.861Z,91.11
2022-12-20T03:30:37.965Z,90.40
2022-12-20T03:31:40.527Z,89.93
2022-12-20T03:32:42.538Z,89.40
2022-12-20T03:33:45.180Z,89.03
2022-12-20T03:34:47.467Z,89.24
2022-12-20T03:35:49.355Z,89.18
2022-12-20T03:36:51.338Z,89.07
2022-12-20T03:37:53.378Z,88.86
2022-12-20T03:38:55.763Z,88.87
2022-12-20T03:39:57.730Z,88.73
2022-12-20T03:41:00.721Z,88.65
2022-12-20T03:42:02.907Z,88.44
2022-12-20T03:43:04.909Z,88.29
2022-12-20T03:44:07.251Z,87.39
2022-12-20T03:45:10.469Z,87.03
2022-12-20T03:46:12.858Z,86.96
2022-12-20T03:47:15.198Z,87.03
2022-12-20T03:48:17.542Z,86.97
2022-12-20T03:49:19.448Z,87.10
2022-12-20T03:50:21.583Z,86.70
2022-12-20T03:51:24.608Z,86.75
2022-12-20T03:52:26.743Z,86.65
2022-12-20T03:53:28.619Z,86.28
2022-12-20T03:54:30.596Z,86.49
2022-12-20T03:55:32.634Z,85.90
2022-12-20T03:56:35.719Z,85.63
2022-12-20T03:57:38.841Z,85.54
2022-12-20T03:58:40.809Z,85.58
2022-12-20T03:59:42.913Z,85.18
2022-12-20T04:00:45.772Z,85.22
2022-12-20T04:01:48.932Z,85.19
2022-12-20T04:02:51.818Z,84.89
2022-12-20T04:03:54.585Z,84.68
2022-12-20T04:04:56.883Z,84.23
2022-12-20T04:05:59.625Z,83.78
2022-12-20T04:07:02.136Z,83.64
2022-12-20T04:08:05.286Z,83.14
2022-12-20T04:09:07.609Z,83.04
2022-12-20T04:10:11.331Z,82.96
2022-12-20T13:16:06.069Z,61.25
2022-12-20T13:17:26.083Z,61.08
2022-12-20T13:18:25.715Z,60.88
2022-12-20T13:19:34.336Z,60.05
2022-12-20T13:20:37.427Z,60.61
2022-12-20T13:21:49.077Z,61.39
2022-12-20T13:23:06.672Z,60.97
2022-12-20T13:24:48.117Z,61.63
2022-12-20T13:25:51.718Z,61.30
2022-12-20T13:26:56.767Z,60.96
2022-12-20T13:28:25.679Z,61.08
2022-12-20T13:29:35.761Z,61.95
2022-12-20T13:30:38.004Z,61.70
2022-12-20T13:31:40.038Z,62.29
2022-12-20T13:32:52.013Z,62.64
2022-12-20T13:33:54.055Z,62.58
2022-12-20T13:34:56.746Z,62.31
2022-12-20T13:36:10.969Z,61.99
2022-12-20T13:37:29.119Z,61.73
2022-12-20T13:38:46.881Z,62.53
2022-12-20T13:39:49.731Z,61.83
2022-12-20T13:40:58.520Z,62.74
2022-12-20T13:42:19.269Z,62.84
2022-12-20T13:43:24.888Z,63.15
2022-12-20T13:44:36.768Z,62.62
2022-12-20T13:45:41.309Z,62.53
2022-12-20T13:46:55.732Z,62.50
2022-12-20T13:48:07.694Z,62.87
2022-12-20T13:49:09.269Z,63.95
2022-12-20T13:50:33.640Z,64.00
2022-12-20T13:51:37.261Z,64.14
2022-12-20T13:52:42.874Z,63.92
2022-12-20T13:54:00.357Z,63.90
2022-12-20T13:55:18.220Z,64.16
2022-12-20T13:56:32.793Z,64.33
2022-12-20T13:57:43.704Z,64.38
2022-12-20T13:58:46.876Z,65.18
2022-12-20T13:59:52.687Z,64.64
2022-12-20T14:01:04.940Z,65.32
2022-12-20T14:02:13.793Z,64.89
2022-12-20T14:03:25.235Z,64.32
2022-12-20T14:04:40.530Z,64.87
2022-12-20T14:05:43.850Z,64.53
2022-12-20T14:06:59.134Z,64.72
2022-12-20T14:08:07.512Z,64.60
2022-12-20T14:09:28.647Z,65.27
2022-12-20T14:10:36.251Z,65.19
2022-12-20T14:11:42.018Z,64.96
2022-12-20T14:12:45.670Z,65.47
2022-12-20T14:13:55.713Z,65.21
2022-12-20T14:14:58.319Z,65.88
2022-12-20T14:16:16.198Z,65.36
2022-12-20T14:17:32.588Z,65.53
2022-12-20T14:18:34.648Z,65.31
2022-12-20T14:19:38.968Z,65.74
2022-12-20T14:20:42.238Z,65.71
2022-12-20T14:21:45.713Z,66.11
2022-12-20T14:22:57.946Z,66.09
2022-12-20T14:24:00.763Z,65.98
2022-12-20T14:25:05.887Z,66.30
2022-12-20T14:26:14.581Z,66.29
2022-12-20T14:27:16.985Z,66.24
2022-12-20T14:28:31.921Z,66.81
2022-12-20T14:29:37.143Z,67.53
2022-12-20T14:30:43.808Z,67.23
2022-12-20T14:31:49.421Z,66.96
2022-12-20T14:32:51.688Z,67.67
2022-12-20T14:34:06.641Z,67.21
2022-12-20T14:35:12.575Z,67.60
2022-12-20T14:36:20.811Z,67.28
2022-12-20T14:37:35.298Z,67.94
2022-12-20T14:38:39.580Z,67.92
2022-12-20T14:39:57.356Z,67.74
2022-12-20T14:41:01.641Z,67.96
2022-12-20T14:42:10.114Z,67.26
2022-12-20T14:43:18.242Z,67.41
2022-12-20T14:44:23.045Z,67.44
2022-12-20T14:45:27.601Z,68.04
2022-12-20T14:46:31.132Z,68.31
2022-12-20T14:47:34.034Z,67.78
2022-12-20T14:48:36.458Z,67.42
2022-12-20T14:49:39.050Z,68.32
2022-12-20T14:50:44.979Z,68.35
2022-12-20T14:51:48.670Z,68.85
2022-12-20T14:52:51.845Z,69.20
2022-12-20T14:53:55.983Z,69.20
2022-12-20T14:55:20.508Z,69.01
2022-12-20T14:56:29.680Z,68.52
2022-12-20T14:57:33.030Z,68.71
2022-12-20T14:58:35.114Z,69.03
2022-12-20T14:59:37.185Z,69.31
2022-12-20T15:00:43.715Z,69.60
2022-12-20T15:01:46.471Z,69.47
2022-12-20T15:03:03.293Z,69.05
2022-12-20T15:04:26.094Z,68.97
2022-12-20T15:05:38.034Z,69.73
2022-12-20T15:06:44.145Z,69.45
2022-12-20T15:07:46.368Z,69.45
2022-12-20T15:08:48.575Z,69.68
2022-12-20T15:09:50.455Z,69.80
2022-12-20T15:11:02.847Z,70.41
2022-12-20T15:12:04.789Z,70.10
2022-12-20T15:13:16.008Z,70.11
2022-12-20T15:14:33.695Z,69.71
2022-12-20T15:15:36.976Z,69.90
2022-12-20T15:16:44.474Z,69.75
2022-12-20T15:17:46.585Z,70.49
2022-12-20T15:18:51.449Z,71.02
2022-12-20T15:19:53.464Z,70.39
2022-12-20T15:22:16.269Z,70.25
2022-12-20T15:23:21.443Z,69.82
2022-12-20T15:24:26.912Z,70.20
2022-12-20T15:25:31.778Z,70.64
2022-12-20T15:26:36.424Z,69.74
2022-12-20T15:27:41.556Z,70.09
2022-12-20T15:28:44.297Z,69.66
2022-12-20T15:29:46.486Z,69.54
2022-12-20T15:30:50.956Z,70.09
2022-12-20T15:32:15.248Z,70.94
2022-12-20T15:34:38.774Z,70.20
2022-12-20T15:35:41.232Z,69.80
2022-12-20T15:36:43.606Z,70.52
2022-12-20T15:37:45.510Z,70.01
2022-12-20T15:39:12.217Z,70.30
2022-12-20T15:39:53.009Z,71.08
2022-12-20T15:40:58.780Z,70.76
2022-12-20T15:42:03.711Z,70.61
2022-12-20T15:43:07.547Z,70.54
2022-12-20T15:44:16.430Z,70.28
2022-12-20T15:45:18.586Z,70.79
2022-12-20T15:46:20.801Z,70.69
2022-12-20T15:47:23.191Z,70.49
2022-12-20T15:48:25.093Z,70.76
2022-12-20T15:49:29.592Z,71.16
2022-12-20T15:50:31.743Z,70.44
2022-12-20T15:51:37.669Z,71.31
2022-12-20T15:52:39.718Z,70.62
2022-12-20T15:53:41.712Z,71.02
2022-12-20T15:54:43.683Z,70.93
2022-12-20T15:55:45.568Z,71.24
2022-12-20T15:56:48.654Z,70.64
2022-12-20T15:57:51.777Z,70.83
2022-12-20T15:58:54.646Z,71.20
2022-12-20T16:00:00.411Z,71.28
2022-12-20T16:01:00.795Z,71.98
2022-12-20T16:02:03.408Z,72.54
2022-12-20T16:03:09.355Z,72.79
2022-12-20T16:04:14.938Z,72.98
2022-12-20T16:05:17.136Z,72.67
2022-12-20T16:06:19.383Z,72.85
2022-12-20T16:07:22.009Z,73.34
2022-12-20T16:08:24.243Z,74.23
2022-12-20T16:09:26.164Z,74.57
2022-12-20T16:10:29.004Z,75.61
2022-12-20T16:11:33.711Z,76.30
2022-12-20T16:12:36.325Z,77.11
2022-12-20T16:13:38.454Z,78.15
2022-12-20T16:14:40.332Z,79.29
2022-12-20T16:15:43.013Z,79.69
2022-12-20T16:16:45.136Z,80.60
2022-12-20T16:17:47.506Z,81.51
2022-12-20T16:18:50.467Z,82.36
2022-12-20T16:19:52.910Z,83.24
2022-12-20T16:20:56.697Z,84.05
2022-12-20T16:21:58.736Z,85.33
2022-12-20T16:23:01.019Z,86.11
2022-12-20T16:24:03.819Z,86.48
2022-12-20T16:25:08.186Z,87.14
2022-12-20T16:26:15.602Z,87.30
2022-12-20T16:27:17.841Z,87.59
2022-12-20T16:28:19.737Z,88.02
2022-12-20T16:29:21.608Z,88.10
2022-12-20T16:30:25.202Z,88.67
2022-12-20T16:31:32.185Z,89.14
2022-12-20T16:32:34.216Z,89.35
2022-12-20T16:33:36.089Z,90.16
2022-12-20T16:34:37.969Z,90.26
2022-12-20T16:35:39.897Z,90.58
2022-12-20T16:36:43.610Z,91.11
2022-12-20T16:37:45.511Z,91.36
2022-12-20T16:38:48.402Z,91.73
2022-12-20T16:39:50.429Z,92.19
2022-12-20T16:40:52.417Z,92.32
2022-12-20T16:41:54.401Z,92.70
2022-12-20T16:42:58.216Z,93.11
2022-12-20T16:44:02.075Z,93.48
2022-12-20T16:45:05.885Z,93.40
2022-12-20T16:47:26.975Z,94.08
2022-12-20T16:48:28.883Z,94.12
2022-12-20T16:49:30.901Z,94.11
2022-12-20T16:50:32.928Z,94.18
2022-12-20T16:51:46.803Z,94.22
2022-12-20T16:52:48.865Z,94.50
2022-12-20T16:54:18.784Z,94.45
2022-12-20T16:55:16.487Z,94.48
2022-12-20T16:56:18.935Z,94.24
2022-12-20T16:57:20.846Z,93.82
2022-12-20T16:58:38.606Z,93.90
2022-12-20T16:59:26.624Z,93.76
2022-12-20T17:00:28.793Z,93.93
2022-12-20T17:01:33.698Z,93.73
2022-12-20T17:02:39.135Z,93.89
2022-12-20T17:03:41.218Z,93.79
2022-12-20T17:04:43.308Z,93.66
2022-12-20T17:05:45.327Z,93.63
2022-12-20T17:06:48.247Z,93.84
2022-12-20T17:07:51.018Z,93.69
2022-12-20T17:10:13.538Z,94.11
2022-12-20T17:11:19.648Z,93.91
2022-12-20T17:12:22.384Z,93.65
2022-12-20T17:13:24.430Z,93.71
2022-12-20T17:14:26.422Z,93.53
2022-12-20T17:15:30.309Z,93.44
2022-12-20T17:16:32.419Z,93.34
2022-12-20T17:17:35.101Z,93.40
2022-12-20T17:18:37.087Z,93.23
2022-12-20T17:19:39.017Z,93.43
2022-12-20T17:20:42.657Z,93.37
2022-12-20T17:24:33.198Z,93.11
2022-12-20T17:25:35.714Z,92.31
2022-12-20T17:26:38.037Z,92.71
2022-12-20T17:27:39.976Z,92.31
2022-12-20T17:28:43.140Z,92.18
2022-12-20T17:29:45.103Z,91.96
2022-12-20T17:30:47.116Z,91.69
2022-12-20T17:31:49.422Z,90.92
2022-12-20T17:32:52.758Z,90.79
2022-12-20T17:33:56.099Z,90.21
2022-12-20T17:34:58.245Z,90.19
2022-12-20T17:36:00.159Z,90.48
2022-12-20T17:37:02.293Z,89.83
2022-12-20T17:38:04.262Z,89.31
2022-12-20T17:39:06.165Z,89.54
2022-12-20T17:40:12.987Z,89.31
2022-12-20T17:41:27.032Z,89.25
2022-12-20T17:42:31.375Z,88.85
2022-12-20T17:43:32.845Z,88.70
2022-12-20T17:44:34.774Z,88.56
2022-12-20T17:45:37.611Z,88.16
2022-12-20T17:46:39.861Z,88.00
2022-12-20T17:47:41.869Z,87.57
2022-12-20T17:48:47.130Z,87.80
2022-12-20T17:49:49.750Z,87.67
2022-12-20T17:50:52.287Z,87.30
2022-12-20T17:51:55.291Z,87.17
2022-12-20T17:52:57.220Z,87.61
2022-12-20T17:54:00.441Z,87.34
2022-12-20T17:55:03.292Z,86.94
2022-12-20T17:56:07.779Z,86.70
2022-12-20T17:57:15.247Z,86.36
2022-12-20T17:58:17.458Z,86.22
2022-12-20T17:59:20.168Z,86.71
2022-12-20T18:00:25.731Z,86.49
2022-12-20T18:01:30.202Z,86.17
2022-12-20T18:02:32.408Z,86.14
2022-12-20T18:04:05.368Z,86.23
2022-12-20T18:04:38.406Z,86.25
2022-12-20T18:05:40.513Z,86.31
2022-12-20T18:06:44.860Z,86.22
2022-12-20T18:07:52.690Z,86.07
2022-12-20T18:08:56.356Z,86.14
2022-12-20T18:09:58.451Z,85.93
2022-12-20T18:11:01.375Z,85.21
2022-12-20T18:12:03.931Z,85.31
2022-12-20T18:13:05.948Z,85.31
2022-12-20T18:14:08.247Z,85.57
2022-12-20T18:15:11.280Z,85.68
2022-12-20T18:16:15.855Z,85.52
2022-12-20T18:17:17.952Z,85.42
2022-12-20T18:18:19.862Z,85.40
2022-12-20T18:19:22.019Z,85.62
2022-12-20T18:20:24.046Z,85.18
2022-12-20T18:21:26.676Z,84.69
2022-12-20T18:22:28.888Z,84.72
2022-12-20T18:23:35.069Z,84.64
2022-12-20T18:24:36.993Z,85.01
2022-12-20T18:25:39.080Z,85.29
2022-12-20T18:26:44.151Z,85.14
2022-12-20T18:27:46.179Z,84.85
2022-12-20T18:28:52.075Z,84.37
2022-12-20T18:29:54.108Z,84.38
2022-12-20T18:30:56.221Z,84.75
2022-12-20T18:31:58.171Z,85.15
2022-12-20T18:33:00.288Z,85.32
2022-12-20T18:34:02.783Z,85.10
2022-12-20T18:35:05.730Z,84.86
2022-12-20T18:36:11.135Z,84.51
2022-12-20T18:37:13.114Z,84.38
2022-12-20T18:38:15.279Z,84.38
2022-12-20T18:39:18.754Z,84.15
2022-12-20T18:40:20.914Z,84.13
2022-12-20T18:41:28.598Z,84.25
2022-12-20T18:42:30.787Z,84.34
2022-12-20T18:43:34.589Z,84.35
2022-12-20T18:44:36.922Z,84.13
2022-12-20T18:45:39.031Z,83.80
2022-12-20T18:46:41.353Z,83.70
2022-12-20T18:47:43.564Z,83.70
2022-12-20T18:48:52.367Z,83.60
2022-12-20T18:49:54.834Z,84.01
2022-12-20T18:52:16.140Z,84.31
2022-12-20T18:53:18.226Z,84.48
2022-12-20T18:54:20.471Z,84.51
2022-12-20T18:55:22.425Z,84.39
2022-12-20T18:56:27.475Z,84.65
2022-12-20T18:57:30.645Z,84.59
2022-12-20T18:58:33.494Z,84.80
2022-12-20T18:59:37.324Z,84.79
2022-12-20T19:00:39.791Z,85.01
2022-12-20T19:01:42.823Z,84.92
2022-12-20T19:02:45.702Z,85.12
2022-12-20T19:03:50.857Z,84.59
2022-12-20T19:04:53.003Z,85.04
2022-12-20T19:05:55.934Z,85.09
2022-12-20T19:06:58.051Z,85.34
2022-12-20T19:08:02.241Z,85.38
2022-12-20T19:09:08.185Z,85.71
2022-12-20T19:10:11.348Z,85.78
2022-12-20T19:11:19.204Z,85.91
2022-12-20T19:12:21.280Z,86.58
2022-12-20T19:13:25.756Z,86.43
2022-12-20T19:14:27.927Z,86.33
2022-12-20T19:15:30.076Z,86.87
2022-12-20T19:16:33.227Z,86.79
2022-12-20T19:17:36.931Z,86.18
2022-12-20T19:18:40.784Z,86.72
2022-12-20T19:19:43.532Z,86.33
2022-12-20T19:20:45.643Z,86.65
2022-12-20T19:21:47.864Z,86.17
2022-12-20T19:22:52.726Z,86.12
2022-12-20T19:23:57.987Z,86.06
2022-12-20T19:25:00.150Z,85.93
2022-12-20T19:26:07.078Z,85.54
2022-12-20T19:27:09.027Z,85.59
2022-12-20T19:28:11.072Z,85.78
2022-12-20T19:29:12.976Z,85.23
2022-12-20T19:30:15.437Z,85.08
2022-12-20T19:31:22.161Z,85.08
2022-12-20T19:32:24.745Z,85.26
2022-12-20T19:33:26.625Z,85.11
2022-12-20T19:34:28.654Z,85.49
2022-12-20T19:35:54.846Z,85.46
2022-12-20T19:36:39.184Z,85.49
2022-12-20T19:37:41.208Z,85.35
2022-12-20T19:38:46.558Z,84.96
2022-12-20T19:39:48.519Z,85.10
2022-12-20T19:40:53.125Z,85.28
2022-12-20T19:42:22.341Z,85.08
2022-12-20T19:42:58.894Z,84.61
2022-12-20T19:44:03.740Z,84.95
2022-12-20T19:45:06.974Z,84.98
2022-12-20T19:46:10.736Z,84.87
2022-12-20T19:47:12.752Z,84.81
2022-12-20T19:48:14.656Z,84.95
2022-12-20T19:49:16.760Z,84.79
2022-12-20T19:50:20.137Z,84.71
2022-12-20T19:51:22.983Z,85.18
2022-12-20T19:52:28.677Z,85.22
2022-12-20T19:53:29.665Z,85.07
2022-12-20T19:54:32.846Z,85.25
2022-12-20T19:55:34.745Z,85.39
2022-12-20T19:56:36.927Z,85.36
2022-12-20T19:57:38.964Z,85.08
2022-12-20T19:58:40.858Z,85.05
2022-12-20T19:59:42.801Z,84.81
2022-12-20T20:00:49.589Z,84.53
2022-12-20T20:01:52.032Z,84.78
2022-12-20T20:02:54.178Z,85.08
2022-12-20T20:03:59.278Z,85.60
2022-12-20T20:05:01.535Z,85.73
2022-12-20T20:06:05.455Z,85.46
2022-12-20T20:07:08.546Z,85.36
2022-12-20T20:08:10.775Z,85.46
2022-12-20T20:09:12.926Z,85.45
2022-12-20T20:10:15.397Z,85.55
2022-12-20T20:11:19.085Z,84.70
2022-12-20T20:12:22.374Z,84.87
2022-12-20T20:13:25.778Z,85.25
2022-12-20T20:14:27.689Z,85.19
2022-12-20T20:15:29.891Z,84.85
2022-12-20T20:16:32.091Z,84.99
2022-12-20T20:17:34.206Z,84.95
2022-12-20T20:18:37.999Z,84.93
2022-12-20T20:19:39.917Z,84.90
2022-12-20T20:20:42.087Z,85.00
2022-12-20T20:21:44.611Z,85.14
2022-12-20T20:22:46.507Z,85.39
2022-12-20T20:23:53.067Z,85.38
2022-12-20T20:24:55.031Z,85.11
2022-12-20T20:25:57.130Z,85.43
2022-12-20T20:26:59.126Z,85.11
2022-12-20T20:28:02.419Z,85.15
2022-12-20T20:29:04.548Z,85.39
2022-12-20T20:30:07.851Z,85.05
2022-12-20T20:31:11.015Z,85.29
2022-12-20T20:32:13.615Z,85.55
2022-12-20T20:33:16.464Z,86.03
2022-12-20T20:34:18.627Z,86.30
2022-12-20T20:35:20.727Z,86.30
2022-12-20T20:36:23.306Z,86.00
2022-12-20T20:37:25.267Z,86.35
2022-12-20T20:38:29.949Z,86.35
2022-12-20T20:39:33.151Z,86.65
2022-12-20T20:40:35.608Z,86.70
2022-12-20T20:41:39.463Z,86.87
2022-12-20T20:42:42.644Z,87.08
2022-12-20T20:43:46.973Z,87.31
2022-12-20T20:44:49.014Z,87.43
2022-12-20T20:45:52.059Z,87.22
2022-12-20T20:46:54.417Z,87.20
2022-12-20T20:48:04.006Z,87.29
2022-12-20T20:49:02.477Z,87.52
2022-12-20T20:50:06.135Z,87.26
2022-12-20T20:51:08.960Z,87.43
2022-12-20T20:52:10.970Z,87.27
2022-12-20T20:53:13.274Z,87.20
2022-12-20T20:54:15.733Z,87.43
2022-12-20T20:55:17.922Z,87.22
2022-12-20T20:56:20.835Z,87.15
2022-12-20T20:57:22.719Z,87.15
2022-12-20T20:58:25.195Z,86.92
2022-12-20T20:59:27.253Z,86.62
2022-12-20T21:00:30.397Z,86.80
2022-12-20T21:01:32.596Z,86.67
2022-12-20T21:02:34.980Z,86.61
2022-12-20T21:03:38.041Z,87.00
2022-12-20T21:04:40.362Z,86.78
2022-12-20T21:06:47.701Z,86.92
2022-12-20T21:07:49.827Z,86.73
2022-12-20T21:08:52.297Z,86.59
2022-12-20T21:09:54.288Z,86.47
2022-12-20T21:10:56.442Z,86.31
2022-12-20T21:11:58.748Z,86.08
2022-12-20T21:13:01.621Z,86.29
2022-12-20T21:14:03.972Z,86.21
2022-12-20T21:15:23.918Z,86.23
2022-12-20T21:16:14.531Z,86.09
2022-12-20T21:17:17.294Z,86.06
2022-12-20T21:18:19.194Z,86.16
2022-12-20T21:19:21.710Z,86.11
2022-12-20T21:20:26.500Z,86.20
2022-12-20T21:21:28.312Z,86.25
2022-12-20T21:22:30.576Z,86.20
2022-12-20T21:23:34.788Z,86.26
2022-12-20T21:24:36.984Z,86.33
2022-12-20T21:25:38.873Z,86.58
2022-12-20T21:26:42.003Z,86.57
2022-12-20T21:27:43.893Z,86.42
2022-12-20T21:28:46.104Z,86.60
2022-12-20T21:29:48.707Z,86.24
2022-12-20T21:32:10.874Z,86.18
2022-12-20T21:33:13.052Z,86.24
2022-12-20T21:34:15.316Z,86.26
2022-12-20T21:35:17.292Z,86.12
2022-12-20T21:36:19.774Z,86.23
2022-12-20T21:37:21.993Z,86.26
2022-12-20T21:38:24.141Z,86.10
2022-12-20T21:39:27.129Z,86.16
2022-12-20T21:40:29.300Z,86.01
2022-12-20T21:41:31.339Z,85.90
2022-12-20T21:42:33.441Z,85.93
2022-12-20T21:43:36.239Z,85.96
2022-12-20T21:44:38.316Z,85.85
2022-12-20T21:45:40.574Z,86.00
2022-12-20T21:46:42.619Z,86.06
2022-12-20T21:47:44.639Z,86.11
2022-12-20T21:48:46.837Z,86.03
2022-12-20T21:49:48.721Z,85.98
2022-12-20T21:51:06.532Z,85.89
2022-12-20T21:52:08.684Z,85.96
2022-12-20T21:53:17.483Z,86.13
2022-12-20T21:54:15.344Z,86.33
2022-12-20T21:55:17.333Z,86.34
2022-12-20T21:56:21.297Z,86.38
2022-12-20T21:57:23.826Z,86.39
2022-12-20T21:58:28.337Z,86.53
2022-12-20T21:59:30.454Z,86.39
2022-12-20T22:00:32.498Z,86.29
2022-12-20T22:01:34.772Z,86.42
2022-12-20T22:02:36.974Z,86.12
2022-12-20T22:03:39.901Z,85.80
2022-12-20T22:04:41.979Z,85.80
2022-12-20T22:05:48.184Z,85.97
2022-12-20T22:06:50.357Z,86.14
2022-12-20T22:07:52.249Z,86.27
2022-12-20T22:09:03.167Z,86.05
2022-12-20T22:10:08.245Z,85.77
2022-12-20T22:11:12.865Z,86.06
2022-12-20T22:12:14.979Z,86.10
2022-12-20T22:13:16.893Z,85.96
2022-12-20T22:14:19.030Z,85.91
2022-12-20T22:15:21.014Z,85.87
2022-12-20T22:16:25.721Z,86.04
2022-12-20T22:17:28.074Z,85.69
2022-12-20T22:18:30.191Z,85.97
2022-12-20T22:19:32.376Z,86.03
2022-12-20T22:20:35.157Z,85.97
2022-12-20T22:21:37.201Z,86.25
2022-12-20T22:22:39.079Z,86.90
2022-12-20T22:23:42.427Z,86.88
2022-12-20T22:24:44.464Z,86.83
2022-12-20T22:25:46.363Z,87.14
2022-12-20T22:26:48.388Z,87.24
2022-12-20T22:27:50.454Z,87.04
2022-12-20T22:30:06.554Z,87.02
2022-12-20T22:31:10.678Z,87.23
2022-12-20T22:32:13.101Z,86.81
2022-12-20T22:33:15.338Z,87.31
2022-12-20T22:34:18.014Z,87.47
2022-12-20T22:35:22.962Z,87.29
2022-12-20T22:36:25.746Z,87.48
2022-12-20T22:37:27.853Z,87.94
2022-12-20T22:38:30.247Z,88.23
2022-12-20T22:39:32.196Z,88.00
2022-12-20T22:40:34.188Z,88.31
2022-12-20T22:41:36.153Z,87.97
2022-12-20T22:42:39.557Z,87.89
2022-12-20T22:43:43.713Z,87.95
2022-12-20T22:44:45.653Z,88.02
2022-12-20T22:45:59.043Z,88.17
2022-12-20T22:47:01.231Z,88.23
2022-12-20T22:48:04.222Z,88.52
2022-12-20T22:49:06.160Z,88.95
2022-12-20T22:50:09.691Z,89.02
2022-12-20T22:51:15.083Z,89.50
2022-12-20T22:52:17.177Z,89.57
2022-12-20T22:53:19.085Z,89.56
2022-12-20T22:54:22.298Z,89.79
2022-12-20T22:55:24.580Z,89.92
2022-12-20T22:56:28.011Z,89.77
2022-12-20T22:57:30.373Z,89.54
2022-12-20T22:58:33.867Z,89.42
2022-12-20T22:59:35.809Z,89.57
2022-12-20T23:00:37.988Z,89.57
2022-12-20T23:01:41.051Z,89.69
2022-12-20T23:02:43.358Z,89.50
2022-12-20T23:03:46.555Z,89.58
2022-12-20T23:04:48.506Z,89.55
2022-12-20T23:05:54.483Z,89.64
2022-12-20T23:06:58.401Z,89.58
2022-12-20T23:08:00.414Z,89.46
2022-12-20T23:09:03.036Z,89.32
2022-12-20T23:10:06.268Z,89.36
2022-12-20T23:12:25.150Z,89.18
2022-12-20T23:13:27.212Z,89.23
2022-12-20T23:14:29.112Z,89.33
2022-12-20T23:15:32.028Z,89.53
2022-12-20T23:16:38.669Z,89.57
2022-12-20T23:17:42.097Z,89.51
2022-12-20T23:18:44.449Z,88.97
2022-12-20T23:19:48.380Z,88.78
2022-12-20T23:20:51.793Z,88.94
2022-12-20T23:21:53.999Z,88.93
2022-12-20T23:22:55.879Z,88.79
2022-12-20T23:23:57.777Z,88.83
2022-12-20T23:24:59.915Z,88.79
2022-12-20T23:26:10.902Z,88.70
2022-12-20T23:27:13.080Z,88.41
2022-12-20T23:28:14.978Z,88.49
2022-12-20T23:29:17.097Z,88.62
2022-12-20T23:30:21.770Z,88.61
2022-12-20T23:31:23.800Z,88.60
2022-12-20T23:32:26.561Z,88.51
2022-12-20T23:33:28.459Z,88.51
2022-12-20T23:34:30.471Z,88.43
2022-12-20T23:35:32.453Z,88.41
2022-12-20T23:36:34.985Z,88.24
2022-12-20T23:37:37.793Z,88.26
2022-12-20T23:38:39.920Z,88.34
2022-12-20T23:39:41.792Z,88.52
2022-12-20T23:40:44.403Z,88.81
2022-12-20T23:41:46.355Z,88.38
2022-12-20T23:42:48.927Z,88.16
2022-12-20T23:43:50.841Z,88.15
2022-12-20T23:44:52.722Z,88.23
2022-12-20T23:45:54.710Z,88.06
2022-12-20T23:46:56.945Z,87.95
2022-12-20T23:47:59.719Z,87.70
2022-12-20T23:49:01.737Z,87.63
2022-12-20T23:50:05.456Z,87.88
2022-12-20T23:51:09.646Z,87.37